MST,Max TemperatureF,Mean TemperatureF,Min TemperatureF,Max Dew PointF,MeanDew PointF,Min DewpointF,Max Humidity, Mean Humidity, Min Humidity, Max Sea Level PressureIn, Mean Sea Level PressureIn, Min Sea Level PressureIn, Max VisibilityMiles, Mean VisibilityMiles, Min VisibilityMiles, Max Wind SpeedMPH, Mean Wind SpeedMPH, Max Gust SpeedMPH,PrecipitationIn, CloudCover, Events, WindDirDegrees
2012-11-1,78,54,30,18,12,4,51,29,7,30.05,29.91,29.78,10,10,10,17,10,22,0.00,0,,248
2012-11-2,71,54,37,22,11,4,48,28,8,30.07,29.92,29.80,10,10,10,17,9,23,0.00,0,,315
2012-11-3,66,48,30,25,22,18,61,40,19,30.19,30.10,30.01,10,10,10,14,6,17,0.00,0,,312
2012-11-4,71,52,33,23,14,4,56,32,7,30.23,30.12,30.01,10,10,10,16,7,25,0.00,0,,273
2012-11-5,64,47,29,25,20,15,58,40,21,30.29,30.18,30.09,10,10,9,14,8,16,0.00,0,,248
2012-11-6,66,52,38,25,22,20,48,35,22,30.22,30.14,30.07,10,10,10,17,9,22,0.00,0,,254
2012-11-7,76,56,35,23,18,12,52,31,10,30.11,29.94,29.82,10,10,10,18,9,20,0.00,0,,268
2012-11-8,72,51,30,21,14,8,39,24,9,29.98,29.81,29.68,10,10,10,22,9,26,T,0,,230
2012-11-9,71,60,48,33,23,14,43,29,15,29.67,29.58,29.50,10,10,10,33,16,43,0.00,0,,228
2012-11-10,61,42,22,37,21,1,59,40,21,29.73,29.52,29.37,10,10,10,43,23,53,T,0,,226
2012-11-11,37,27,16,18,8,-9,91,54,17,30.31,30.01,29.73,10,10,10,24,7,31,0.00,2,,289
2012-11-12,51,32,12,-5,-11,-20,42,24,5,30.44,30.33,30.20,10,10,10,15,8,17,0.00,0,,246
2012-11-13,59,43,26,6,1,-7,37,24,10,30.38,30.19,30.07,10,10,10,17,9,23,0.00,0,,296
2012-11-14,65,42,18,8,1,-5,45,26,7,30.28,30.16,30.04,10,10,10,17,8,20,0.00,0,,265
2012-11-15,51,37,23,27,14,-7,69,44,19,30.42,30.30,30.06,10,10,9,15,7,17,0.00,0,,281
2012-11-16,64,44,24,24,18,13,75,45,14,30.34,30.17,30.02,10,10,10,28,8,33,0.00,0,,216
2012-11-17,68,50,32,21,17,15,47,31,14,30.12,29.99,29.89,10,10,10,22,11,28,0.00,0,,237
2012-11-18,64,47,30,19,15,12,47,31,14,30.06,29.97,29.89,10,10,10,15,7,18,0.00,0,,285
2012-11-19,64,45,26,17,13,9,53,34,14,30.26,30.16,30.04,10,10,10,16,8,18,0.00,0,,258
2012-11-20,68,49,29,13,9,5,43,26,8,30.28,30.14,30.00,10,10,10,17,9,22,0.00,0,,234
2012-11-21,73,53,33,11,4,-3,38,22,5,30.08,29.93,29.81,10,10,10,20,10,23,0.00,0,,269
2012-11-22,63,43,23,23,9,1,58,35,12,30.44,30.08,29.80,10,10,10,22,8,26,0.00,0,,230
2012-11-23,55,36,16,16,14,10,74,47,20,30.54,30.41,30.23,10,10,10,23,7,29,0.00,0,,260
2012-11-24,73,52,30,15,4,-4,44,25,5,30.22,30.01,29.86,10,10,10,21,11,25,0.00,0,,269
2012-11-25,67,46,24,11,2,-3,35,21,7,29.99,29.84,29.72,10,10,10,21,8,24,0.00,0,,274
2012-11-26,50,33,15,25,19,8,92,56,20,30.39,30.23,29.83,10,10,9,18,5,23,0.00,3,,347
2012-11-27,67,41,14,20,-1,-16,88,46,3,30.36,30.22,30.06,10,10,7,20,9,24,0.00,0,,254
2012-11-28,61,40,19,-5,-7,-11,25,16,6,30.32,30.15,30.05,10,10,10,16,8,18,0.00,0,,277
2012-11-29,69,48,26,18,11,0,36,24,12,30.10,29.99,29.89,10,10,10,21,10,26,0.00,0,,288
2012-11-30,64,46,27,19,13,10,46,30,14,30.07,29.94,29.75,10,10,10,21,8,25,0.00,0,,279